createdAt,value
2019-01-23T00:00:32.066Z,28.80
2019-01-23T00:01:32.025Z,28.80
2019-01-23T00:02:32.015Z,27.20
2019-01-23T00:03:32.002Z,28.50
2019-01-23T00:04:32.003Z,29.60
2019-01-23T00:05:32.008Z,29.00
2019-01-23T00:06:31.972Z,27.60
2019-01-23T00:07:31.959Z,27.30
2019-01-23T00:08:31.947Z,27.80
2019-01-23T00:09:31.944Z,28.20
2019-01-23T00:10:31.949Z,28.10
2019-01-23T00:11:31.917Z,28.30
2019-01-23T00:12:31.903Z,29.30
2019-01-23T00:13:31.892Z,28.30
2019-01-23T00:14:31.885Z,29.00
2019-01-23T00:15:31.894Z,29.20
2019-01-23T00:16:31.864Z,28.90
2019-01-23T00:17:31.847Z,29.00
2019-01-23T00:18:31.837Z,27.80
2019-01-23T00:19:31.826Z,28.80
2019-01-23T00:20:31.840Z,28.70
2019-01-23T00:21:31.804Z,28.10
2019-01-23T00:22:31.801Z,28.00
2019-01-23T00:23:31.784Z,28.50
2019-01-23T00:24:31.772Z,29.50
2019-01-23T00:25:31.783Z,29.50
2019-01-23T00:26:31.748Z,28.10
2019-01-23T00:27:31.739Z,28.40
2019-01-23T00:28:31.731Z,28.00
2019-01-23T00:29:31.715Z,28.00
2019-01-23T00:30:31.728Z,27.90
2019-01-23T00:31:31.696Z,28.30
2019-01-23T00:32:31.683Z,28.40
2019-01-23T00:33:31.674Z,27.20
2019-01-23T00:34:31.659Z,28.10
2019-01-23T00:35:31.673Z,28.70
2019-01-23T00:36:31.638Z,26.50
2019-01-23T00:37:31.629Z,29.20
2019-01-23T00:38:31.618Z,27.20
2019-01-23T00:39:31.606Z,28.00
2019-01-23T00:40:31.628Z,27.50
2019-01-23T00:41:31.582Z,27.10
2019-01-23T00:42:31.573Z,26.90
2019-01-23T00:43:31.561Z,28.30
2019-01-23T00:44:31.549Z,27.20
2019-01-23T00:45:31.563Z,27.50
2019-01-23T00:46:31.528Z,27.20
2019-01-23T00:47:31.515Z,26.90
2019-01-23T00:48:31.506Z,27.80
2019-01-23T00:49:31.497Z,27.30
2019-01-23T00:50:31.510Z,27.20
2019-01-23T00:51:31.473Z,27.90
2019-01-23T00:52:31.460Z,28.00
2019-01-23T00:53:31.450Z,27.30
2019-01-23T00:54:31.438Z,28.20
2019-01-23T00:55:31.453Z,27.80
2019-01-23T00:56:31.418Z,27.30
2019-01-23T00:57:31.405Z,27.60
2019-01-23T00:58:31.395Z,27.90
2019-01-23T00:59:31.383Z,27.80
2019-01-23T01:00:31.398Z,30.20
2019-01-23T01:01:31.362Z,30.10
2019-01-23T01:02:31.351Z,29.00
2019-01-23T01:03:31.340Z,27.90
2019-01-23T01:04:31.330Z,28.80
2019-01-23T01:05:31.342Z,27.30
2019-01-23T01:06:31.308Z,28.10
2019-01-23T01:07:31.297Z,26.70
2019-01-23T01:08:31.286Z,26.80
2019-01-23T01:09:31.274Z,27.50
2019-01-23T01:10:31.287Z,27.20
2019-01-23T01:11:31.252Z,28.00
2019-01-23T01:12:31.242Z,28.60
2019-01-23T01:13:31.229Z,27.90
2019-01-23T01:14:31.218Z,27.70
2019-01-23T01:15:31.231Z,28.60
2019-01-23T01:16:31.198Z,27.90
2019-01-23T01:17:31.186Z,28.90
2019-01-23T01:18:31.176Z,27.40
2019-01-23T01:19:31.168Z,27.90
2019-01-23T01:20:31.177Z,27.20
2019-01-23T01:21:31.143Z,28.00
2019-01-23T01:22:31.131Z,28.00
2019-01-23T01:23:31.121Z,26.60
2019-01-23T01:24:31.108Z,26.90
2019-01-23T01:25:31.122Z,26.60
2019-01-23T01:26:31.087Z,27.70
2019-01-23T01:27:31.076Z,28.10
2019-01-23T01:28:31.064Z,28.10
2019-01-23T01:29:31.053Z,27.80
2019-01-23T01:30:31.066Z,27.80
2019-01-23T01:31:31.033Z,26.70
2019-01-23T01:32:31.025Z,27.50
2019-01-23T01:33:34.010Z,27.40
2019-01-23T01:34:30.999Z,27.90
2019-01-23T01:35:30.988Z,26.50
2019-01-23T01:36:31.001Z,27.80
2019-01-23T01:37:30.965Z,28.70
2019-01-23T01:38:30.954Z,26.50
2019-01-23T01:39:30.943Z,26.50
2019-01-23T01:40:30.934Z,27.40
2019-01-23T01:41:30.944Z,26.00
2019-01-23T01:42:30.910Z,27.00
2019-01-23T01:43:30.897Z,27.60
2019-01-23T01:44:30.887Z,25.90
2019-01-23T01:45:30.879Z,26.20
2019-01-23T01:46:30.890Z,28.10
2019-01-23T01:47:30.854Z,26.40
2019-01-23T01:48:30.843Z,27.00
2019-01-23T01:49:30.834Z,27.40
2019-01-23T01:50:30.822Z,27.70
2019-01-23T01:51:30.834Z,26.30
2019-01-23T01:52:30.800Z,27.10
2019-01-23T01:53:30.788Z,27.00
2019-01-23T01:54:30.776Z,27.40
2019-01-23T01:55:30.767Z,26.50
2019-01-23T01:56:30.783Z,27.60
2019-01-23T01:57:30.745Z,26.90
2019-01-23T01:58:30.735Z,26.50
2019-01-23T01:59:30.721Z,26.60
2019-01-23T02:00:30.711Z,26.60
2019-01-23T02:01:30.724Z,26.70
2019-01-23T02:02:30.689Z,26.50
2019-01-23T02:03:30.679Z,28.00
2019-01-23T02:04:30.666Z,26.60
2019-01-23T02:05:30.656Z,26.20
2019-01-23T02:06:30.670Z,27.60
2019-01-23T02:07:30.635Z,26.40
2019-01-23T02:08:30.622Z,27.50
2019-01-23T02:09:35.458Z,26.60
2019-01-23T02:10:31.598Z,26.90
2019-01-23T02:11:30.614Z,25.40
2019-01-23T02:12:30.581Z,26.10
2019-01-23T02:13:30.573Z,26.00
2019-01-23T02:14:30.556Z,26.30
2019-01-23T02:15:30.547Z,26.80
2019-01-23T02:16:30.557Z,26.50
2019-01-23T02:17:30.522Z,27.00
2019-01-23T02:18:30.517Z,26.20
2019-01-23T02:19:30.503Z,25.60
2019-01-23T02:20:30.492Z,25.80
2019-01-23T02:21:30.504Z,25.80
2019-01-23T02:22:30.466Z,25.40
2019-01-23T02:23:30.456Z,25.80
2019-01-23T02:24:30.445Z,27.40
2019-01-23T02:25:30.433Z,26.30
2019-01-23T02:26:30.447Z,26.00
2019-01-23T02:27:30.412Z,26.10
2019-01-23T02:28:30.401Z,27.20
2019-01-23T02:29:30.389Z,26.80
2019-01-23T02:30:30.386Z,27.40
2019-01-23T02:31:30.393Z,27.70
2019-01-23T02:32:30.360Z,27.30
2019-01-23T02:33:30.346Z,26.80
2019-01-23T02:34:30.334Z,25.80
2019-01-23T02:35:30.324Z,25.90
2019-01-23T02:36:30.339Z,25.30
2019-01-23T02:37:30.310Z,26.00
2019-01-23T02:38:30.291Z,24.70
2019-01-23T02:39:30.283Z,25.80
2019-01-23T02:40:30.286Z,25.80
2019-01-23T02:41:30.282Z,25.70
2019-01-23T02:42:30.250Z,25.30
2019-01-23T02:43:30.235Z,25.80
2019-01-23T02:44:30.223Z,26.00
2019-01-23T02:45:30.215Z,25.80
2019-01-23T02:46:30.227Z,25.20
2019-01-23T02:47:30.192Z,24.70
2019-01-23T02:48:30.183Z,26.00
2019-01-23T02:49:30.170Z,25.40
2019-01-23T02:50:30.158Z,25.70
2019-01-23T02:51:30.173Z,26.50
2019-01-23T02:52:30.138Z,26.90
2019-01-23T02:53:30.127Z,26.40
2019-01-23T02:54:30.115Z,24.50
2019-01-23T02:55:30.104Z,26.50
2019-01-23T02:56:30.119Z,25.80
2019-01-23T02:57:30.084Z,26.40
2019-01-23T02:58:30.071Z,26.80
2019-01-23T02:59:30.060Z,25.40
2019-01-23T03:00:30.051Z,26.00
2019-01-23T03:01:30.063Z,26.70
2019-01-23T03:02:30.028Z,26.30
2019-01-23T03:03:30.015Z,25.40
2019-01-23T03:04:30.010Z,25.80
2019-01-23T03:05:29.995Z,25.20
2019-01-23T03:06:30.008Z,25.50
2019-01-23T03:07:29.972Z,26.20
2019-01-23T03:08:29.960Z,25.10
2019-01-23T03:09:29.950Z,25.40
2019-01-23T03:10:29.941Z,26.30
2019-01-23T03:11:29.951Z,25.90
2019-01-23T03:12:29.917Z,25.60
2019-01-23T03:13:29.909Z,26.50
2019-01-23T03:14:29.895Z,26.70
2019-01-23T03:15:29.885Z,25.30
2019-01-23T03:16:29.896Z,25.20
2019-01-23T03:17:29.862Z,25.40
2019-01-23T03:18:29.852Z,25.20
2019-01-23T03:19:29.844Z,25.80
2019-01-23T03:20:29.832Z,26.30
2019-01-23T03:21:29.819Z,25.70
2019-01-23T03:22:29.831Z,25.80
2019-01-23T03:23:29.797Z,25.60
2019-01-23T03:24:29.790Z,25.80
2019-01-23T03:25:29.774Z,24.50
2019-01-23T03:26:29.767Z,26.60
2019-01-23T03:27:29.778Z,25.40
2019-01-23T03:28:29.743Z,25.00
2019-01-23T03:29:29.733Z,26.40
2019-01-23T03:30:29.721Z,25.40
2019-01-23T03:31:29.714Z,25.10
2019-01-23T03:32:29.724Z,25.90
2019-01-23T03:33:29.691Z,25.20
2019-01-23T03:34:29.676Z,26.30
2019-01-23T03:35:29.666Z,25.20
2019-01-23T03:36:29.660Z,25.80
2019-01-23T03:37:29.673Z,24.10
2019-01-23T03:38:29.632Z,23.70
2019-01-23T03:39:29.621Z,25.00
2019-01-23T03:40:29.615Z,25.50
2019-01-23T03:41:29.602Z,25.40
2019-01-23T03:42:29.611Z,24.40
2019-01-23T03:43:29.577Z,24.40
2019-01-23T03:44:29.570Z,22.80
2019-01-23T03:45:29.554Z,25.50
2019-01-23T03:46:29.545Z,23.90
2019-01-23T03:47:29.557Z,23.30
2019-01-23T03:48:29.529Z,24.70
2019-01-23T03:49:29.509Z,26.40
2019-01-23T03:50:29.505Z,24.90
2019-01-23T03:51:29.489Z,27.60
2019-01-23T03:52:29.501Z,27.20
2019-01-23T03:53:29.468Z,25.80
2019-01-23T03:54:29.454Z,24.50
2019-01-23T03:55:29.443Z,23.40
2019-01-23T03:56:29.432Z,24.20
2019-01-23T03:57:29.445Z,25.30
2019-01-23T03:58:29.409Z,23.80
2019-01-23T03:59:32.248Z,24.50
2019-01-23T04:00:29.386Z,24.60
2019-01-23T04:01:29.376Z,23.20
2019-01-23T04:02:29.390Z,23.40
2019-01-23T04:03:29.358Z,24.90
2019-01-23T04:04:29.343Z,25.30
2019-01-23T04:05:31.035Z,24.20
2019-01-23T04:06:29.323Z,23.20
2019-01-23T04:07:29.335Z,24.40
2019-01-23T04:08:29.300Z,23.10
2019-01-23T04:09:29.287Z,24.10
2019-01-23T04:10:29.277Z,23.30
2019-01-23T04:11:29.270Z,22.30
2019-01-23T04:12:29.278Z,22.40
2019-01-23T04:13:29.244Z,22.90
2019-01-23T04:14:29.233Z,22.50
2019-01-23T04:15:29.222Z,23.10
2019-01-23T04:16:29.212Z,23.40
2019-01-23T04:17:29.288Z,23.10
2019-01-23T04:18:29.190Z,24.10
2019-01-23T04:19:29.179Z,23.90
2019-01-23T04:20:29.168Z,22.60
2019-01-23T04:21:29.156Z,23.10
2019-01-23T04:22:29.169Z,23.50
2019-01-23T04:23:29.136Z,22.70
2019-01-23T04:24:29.129Z,23.80
2019-01-23T04:25:29.111Z,24.50
2019-01-23T04:26:29.103Z,23.20
2019-01-23T04:27:29.115Z,22.50
2019-01-23T04:28:29.079Z,23.30
2019-01-23T04:29:29.068Z,21.60
2019-01-23T04:30:29.058Z,22.20
2019-01-23T04:31:29.049Z,21.90
2019-01-23T04:32:29.062Z,21.90
2019-01-23T04:33:29.025Z,21.50
2019-01-23T04:34:29.015Z,23.40
2019-01-23T04:35:29.005Z,23.60
2019-01-23T04:36:28.994Z,23.20
2019-01-23T04:37:29.005Z,23.50
2019-01-23T04:38:28.971Z,24.20
2019-01-23T04:39:28.962Z,22.10
2019-01-23T04:40:28.947Z,22.30
2019-01-23T04:41:28.937Z,22.90
2019-01-23T04:42:28.950Z,23.00
2019-01-23T04:43:28.918Z,23.70
2019-01-23T04:44:28.909Z,23.30
2019-01-23T04:45:28.897Z,24.30
2019-01-23T04:46:28.884Z,23.90
2019-01-23T04:47:28.895Z,24.50
2019-01-23T04:48:28.859Z,23.70
2019-01-23T04:49:28.848Z,22.40
2019-01-23T04:50:28.838Z,23.00
2019-01-23T04:51:28.828Z,28.70
2019-01-23T04:52:28.840Z,23.10
2019-01-23T04:53:28.807Z,24.60
2019-01-23T04:54:28.797Z,23.50
2019-01-23T04:55:28.783Z,22.60
2019-01-23T04:56:28.771Z,21.80
2019-01-23T04:57:28.793Z,23.10
2019-01-23T04:58:28.750Z,23.60
2019-01-23T04:59:28.741Z,22.90
2019-01-23T05:00:28.728Z,24.00
2019-01-23T05:01:28.716Z,22.50
2019-01-23T05:02:28.708Z,23.20
2019-01-23T05:03:28.719Z,24.30
2019-01-23T05:04:28.685Z,23.20
2019-01-23T05:05:28.674Z,23.50
2019-01-23T05:06:28.662Z,25.50
2019-01-23T05:07:28.654Z,25.10
2019-01-23T05:08:28.665Z,25.10
2019-01-23T05:09:28.632Z,23.00
2019-01-23T05:10:28.618Z,24.10
2019-01-23T05:11:28.607Z,24.80
2019-01-23T05:12:28.597Z,24.80
2019-01-23T05:13:28.610Z,25.80
2019-01-23T05:14:28.574Z,24.30
2019-01-23T05:15:28.562Z,23.40
2019-01-23T05:16:28.551Z,24.00
2019-01-23T05:17:28.542Z,24.80
2019-01-23T05:18:28.552Z,24.80
2019-01-23T05:19:28.519Z,24.80
2019-01-23T05:20:28.509Z,25.40
2019-01-23T05:21:28.496Z,24.00
2019-01-23T05:22:28.489Z,24.90
2019-01-23T05:23:28.502Z,24.60
2019-01-23T05:24:28.464Z,24.10
2019-01-23T05:25:28.454Z,23.60
2019-01-23T05:26:28.444Z,24.40
2019-01-23T05:27:28.434Z,25.10
2019-01-23T05:28:28.442Z,24.60
2019-01-23T05:29:28.410Z,25.70
2019-01-23T05:30:28.398Z,25.20
2019-01-23T05:31:28.389Z,25.80
2019-01-23T05:32:28.377Z,26.00
2019-01-23T05:33:28.389Z,25.90
2019-01-23T05:34:28.353Z,26.00
2019-01-23T05:35:28.344Z,24.20
2019-01-23T05:36:28.332Z,24.50
2019-01-23T05:37:28.320Z,24.60
2019-01-23T05:38:28.335Z,25.20
2019-01-23T05:39:28.300Z,25.20
2019-01-23T05:40:28.287Z,25.90
2019-01-23T05:41:28.278Z,25.20
2019-01-23T05:42:28.277Z,25.90
2019-01-23T05:43:28.279Z,25.70
2019-01-23T05:44:28.244Z,24.90
2019-01-23T05:45:28.232Z,26.30
2019-01-23T05:46:28.221Z,26.50
2019-01-23T05:47:28.212Z,27.00
2019-01-23T05:48:28.225Z,26.60
2019-01-23T05:49:28.189Z,26.70
2019-01-23T05:50:28.181Z,27.60
2019-01-23T05:51:28.166Z,27.00
2019-01-23T05:52:28.155Z,28.00
2019-01-23T05:53:28.185Z,27.40
2019-01-23T05:54:28.152Z,26.00
2019-01-23T05:55:28.126Z,26.80
2019-01-23T05:56:28.116Z,26.80
2019-01-23T05:57:28.102Z,26.10
2019-01-23T05:58:28.114Z,27.30
2019-01-23T05:59:28.078Z,27.60
2019-01-23T06:00:28.067Z,28.50
2019-01-23T06:01:28.055Z,29.30
2019-01-23T06:02:28.046Z,27.80
2019-01-23T06:03:28.057Z,29.10
2019-01-23T06:04:28.022Z,26.70
2019-01-23T06:05:28.014Z,28.00
2019-01-23T06:06:28.000Z,27.40
2019-01-23T06:07:27.992Z,27.00
2019-01-23T06:08:28.005Z,26.30
2019-01-23T06:09:27.970Z,27.20
2019-01-23T06:10:27.956Z,28.40
2019-01-23T06:11:27.946Z,28.00
2019-01-23T06:12:27.934Z,27.60
2019-01-23T06:13:27.946Z,29.40
2019-01-23T06:14:27.914Z,27.70
2019-01-23T06:15:27.904Z,27.90
2019-01-23T06:16:27.895Z,28.90
2019-01-23T06:17:27.880Z,27.40
2019-01-23T06:18:27.894Z,27.10
2019-01-23T06:19:27.859Z,28.30
2019-01-23T06:20:27.849Z,29.50
2019-01-23T06:21:27.835Z,28.80
2019-01-23T06:22:27.827Z,29.80
2019-01-23T06:23:27.843Z,28.50
2019-01-23T06:24:27.804Z,30.70
2019-01-23T06:25:27.800Z,29.20
2019-01-23T06:26:27.782Z,28.90
2019-01-23T06:27:27.773Z,29.20
2019-01-23T06:28:27.785Z,29.90
2019-01-23T06:29:27.750Z,29.40
2019-01-23T06:30:27.739Z,29.60
2019-01-23T06:31:27.728Z,30.90
2019-01-23T06:32:27.723Z,31.30
2019-01-23T06:33:27.730Z,34.80
2019-01-23T06:34:27.697Z,29.40
2019-01-23T06:35:27.684Z,29.70
2019-01-23T06:36:27.674Z,31.10
2019-01-23T06:37:27.663Z,31.80
2019-01-23T06:38:27.674Z,32.40
2019-01-23T06:39:27.641Z,33.50
2019-01-23T06:40:27.628Z,36.20
2019-01-23T06:41:27.622Z,34.60
2019-01-23T06:42:27.610Z,34.40
2019-01-23T06:43:27.620Z,32.00
2019-01-23T06:44:27.588Z,30.30
2019-01-23T06:45:27.577Z,30.60
2019-01-23T06:46:27.563Z,29.70
2019-01-23T06:47:27.554Z,31.10
2019-01-23T06:48:27.543Z,31.10
2019-01-23T06:49:27.554Z,32.80
2019-01-23T06:50:27.519Z,31.10
2019-01-23T06:51:27.515Z,29.70
2019-01-23T06:52:27.498Z,30.10
2019-01-23T06:53:27.488Z,30.20
2019-01-23T06:54:27.499Z,31.00
2019-01-23T06:55:27.466Z,30.10
2019-01-23T06:56:27.453Z,29.90
2019-01-23T06:57:27.446Z,29.10
2019-01-23T06:58:27.433Z,30.00
2019-01-23T06:59:27.447Z,30.30
2019-01-23T07:00:27.409Z,30.30
2019-01-23T07:01:27.399Z,29.90
2019-01-23T07:02:27.388Z,34.90
2019-01-23T07:03:27.378Z,35.50
2019-01-23T07:04:27.390Z,36.50
2019-01-23T07:05:27.354Z,36.10
2019-01-23T07:06:27.345Z,32.00
2019-01-23T07:07:27.332Z,30.80
2019-01-23T07:08:27.324Z,30.50
2019-01-23T07:09:27.335Z,29.60
2019-01-23T07:10:27.303Z,31.20
2019-01-23T07:11:27.290Z,33.20
2019-01-23T07:12:27.312Z,31.90
2019-01-23T07:13:28.731Z,31.00
2019-01-23T07:14:27.281Z,32.00
2019-01-23T07:15:27.245Z,32.00
2019-01-23T07:16:27.235Z,32.60
2019-01-23T07:17:27.226Z,33.10
2019-01-23T07:18:27.214Z,33.60
2019-01-23T07:19:27.226Z,31.20
2019-01-23T07:20:27.192Z,31.00
2019-01-23T07:21:27.179Z,30.90
2019-01-23T07:22:27.169Z,31.00
2019-01-23T07:23:27.159Z,29.90
2019-01-23T07:24:27.171Z,31.30
2019-01-23T07:25:27.145Z,30.00
2019-01-23T07:26:27.127Z,29.70
2019-01-23T07:27:27.114Z,30.10
2019-01-23T07:28:27.104Z,31.60
2019-01-23T07:29:27.117Z,30.20
2019-01-23T07:30:27.082Z,29.50
2019-01-23T07:31:27.071Z,31.20
2019-01-23T07:32:27.060Z,30.60
2019-01-23T07:33:27.050Z,29.20
2019-01-23T07:34:27.062Z,28.70
2019-01-23T07:35:27.037Z,29.40
2019-01-23T07:36:27.016Z,29.80
2019-01-23T07:37:27.005Z,29.10
2019-01-23T07:38:26.995Z,29.60
2019-01-23T07:39:27.010Z,29.30
2019-01-23T07:40:26.975Z,35.10
2019-01-23T07:41:26.962Z,31.90
2019-01-23T07:42:26.951Z,30.50
2019-01-23T07:43:26.940Z,31.90
2019-01-23T07:44:26.954Z,29.20
2019-01-23T07:45:26.919Z,35.50
2019-01-23T07:46:26.908Z,36.40
2019-01-23T07:47:26.896Z,33.10
2019-01-23T07:48:26.887Z,29.70
2019-01-23T07:49:26.900Z,28.90
2019-01-23T07:50:26.864Z,30.30
2019-01-23T07:51:26.853Z,28.40
2019-01-23T07:52:26.842Z,29.10
2019-01-23T07:53:26.832Z,30.50
2019-01-23T07:54:26.844Z,29.10
2019-01-23T07:55:26.809Z,29.30
2019-01-23T07:56:26.800Z,28.80
2019-01-23T07:57:26.786Z,30.60
2019-01-23T07:58:26.777Z,33.00
2019-01-23T07:59:26.789Z,30.20
2019-01-23T08:00:31.199Z,31.30
2019-01-23T08:01:26.743Z,29.40
2019-01-23T08:02:26.735Z,28.80
2019-01-23T08:03:26.720Z,29.40
2019-01-23T08:04:26.735Z,28.20
2019-01-23T08:05:26.699Z,32.70
2019-01-23T08:06:26.686Z,38.70
2019-01-23T08:07:26.677Z,37.90
2019-01-23T08:08:26.666Z,31.70
2019-01-23T08:09:26.676Z,30.10
2019-01-23T08:10:26.644Z,30.60
2019-01-23T08:11:26.633Z,29.10
2019-01-23T08:12:26.620Z,29.10
2019-01-23T08:13:26.609Z,29.80
2019-01-23T08:14:26.623Z,28.40
2019-01-23T08:15:26.587Z,29.00
2019-01-23T08:16:26.575Z,29.70
2019-01-23T08:17:32.577Z,29.50
2019-01-23T08:18:27.553Z,30.40
2019-01-23T08:19:26.581Z,27.90
2019-01-23T08:20:26.532Z,29.10
2019-01-23T08:21:26.523Z,29.70
2019-01-23T08:22:26.510Z,30.20
2019-01-23T08:23:26.501Z,30.20
2019-01-23T08:24:26.513Z,30.80
2019-01-23T08:25:26.481Z,30.20
2019-01-23T08:26:26.467Z,28.60
2019-01-23T08:27:26.454Z,28.10
2019-01-23T08:28:26.443Z,30.00
2019-01-23T08:29:26.436Z,30.20
2019-01-23T08:30:26.447Z,29.00
2019-01-23T08:31:26.411Z,30.40
2019-01-23T08:32:26.401Z,30.20
2019-01-23T08:33:26.388Z,30.50
2019-01-23T08:34:26.402Z,32.70
2019-01-23T08:35:26.366Z,32.10
2019-01-23T08:36:26.356Z,39.10
2019-01-23T08:37:26.356Z,37.60
2019-01-23T08:38:26.334Z,37.00
2019-01-23T08:39:26.325Z,33.50
2019-01-23T08:40:26.464Z,34.80
2019-01-23T08:41:26.299Z,32.10
2019-01-23T08:42:26.289Z,31.90
2019-01-23T08:43:26.281Z,30.60
2019-01-23T08:44:26.268Z,31.70
2019-01-23T08:45:26.280Z,29.70
2019-01-23T08:46:26.246Z,29.70
2019-01-23T08:47:26.233Z,35.30
2019-01-23T08:48:26.220Z,32.30
2019-01-23T08:49:26.457Z,32.20
2019-01-23T08:50:26.199Z,32.90
2019-01-23T08:51:26.189Z,32.30
2019-01-23T08:52:26.176Z,30.40
2019-01-23T08:53:26.166Z,30.50
2019-01-23T08:54:26.153Z,30.40
2019-01-23T08:55:26.169Z,31.90
2019-01-23T08:56:26.132Z,32.80
2019-01-23T08:57:26.120Z,34.50
2019-01-23T08:58:26.110Z,35.90
2019-01-23T08:59:26.098Z,33.90
2019-01-23T09:00:26.111Z,45.10
2019-01-23T09:01:26.076Z,39.30
2019-01-23T09:02:26.066Z,35.30
2019-01-23T09:03:26.053Z,36.00
2019-01-23T09:04:26.042Z,34.60
2019-01-23T09:05:26.057Z,30.30
2019-01-23T09:06:26.024Z,33.40
2019-01-23T09:07:26.011Z,31.60
2019-01-23T09:08:25.999Z,32.70
2019-01-23T09:09:25.988Z,30.80
2019-01-23T09:10:26.007Z,30.20
2019-01-23T09:11:25.968Z,31.10
2019-01-23T09:12:25.955Z,28.90
2019-01-23T09:13:25.943Z,31.00
2019-01-23T09:14:25.932Z,30.40
2019-01-23T09:15:25.948Z,34.80
2019-01-23T09:16:25.911Z,38.00
2019-01-23T09:17:25.900Z,35.50
2019-01-23T09:18:25.888Z,35.30
2019-01-23T09:19:25.876Z,35.50
2019-01-23T09:20:25.890Z,36.00
2019-01-23T09:21:25.855Z,34.40
2019-01-23T09:22:25.847Z,34.80
2019-01-23T09:23:25.833Z,29.00
2019-01-23T09:24:25.822Z,30.50
2019-01-23T09:25:25.836Z,29.90
2019-01-23T09:26:25.803Z,27.90
2019-01-23T09:27:25.790Z,28.00
2019-01-23T09:28:25.779Z,28.80
2019-01-23T09:29:25.768Z,33.70
2019-01-23T09:30:25.781Z,32.10
2019-01-23T09:31:25.746Z,30.50
2019-01-23T09:32:25.735Z,30.50
2019-01-23T09:33:25.723Z,33.30
2019-01-23T09:34:25.720Z,35.40
2019-01-23T09:35:25.726Z,33.60
2019-01-23T09:36:25.691Z,31.90
2019-01-23T09:37:25.682Z,30.20
2019-01-23T09:38:25.669Z,27.80
2019-01-23T09:39:25.659Z,33.40
2019-01-23T09:40:25.673Z,30.10
2019-01-23T09:41:25.638Z,28.80
2019-01-23T09:42:25.627Z,31.20
2019-01-23T09:43:25.617Z,30.10
2019-01-23T09:44:25.605Z,28.20
2019-01-23T09:45:25.617Z,28.20
2019-01-23T09:46:25.583Z,27.20
2019-01-23T09:47:25.570Z,28.90
2019-01-23T09:48:25.559Z,31.10
2019-01-23T09:49:25.565Z,29.00
2019-01-23T09:50:25.562Z,29.50
2019-01-23T09:51:25.528Z,28.30
2019-01-23T09:52:25.516Z,27.50
2019-01-23T09:53:25.504Z,32.30
2019-01-23T09:54:25.536Z,32.10
2019-01-23T09:55:25.507Z,35.90
2019-01-23T09:56:25.476Z,34.30
2019-01-23T09:57:25.461Z,35.40
2019-01-23T09:58:25.450Z,35.00
2019-01-23T09:59:25.440Z,36.40
2019-01-23T10:00:25.456Z,33.40
2019-01-23T10:01:25.418Z,38.30
2019-01-23T10:02:25.407Z,33.90
2019-01-23T10:03:25.395Z,31.70
2019-01-23T10:04:25.386Z,29.40
2019-01-23T10:05:25.397Z,29.70
2019-01-23T10:06:25.385Z,34.40
2019-01-23T10:07:25.353Z,36.10
2019-01-23T10:08:25.342Z,33.50
2019-01-23T10:09:25.331Z,31.80
2019-01-23T10:10:25.344Z,32.70
2019-01-23T10:11:25.307Z,30.40
2019-01-23T10:12:25.296Z,30.80
2019-01-23T10:13:25.287Z,30.60
2019-01-23T10:14:25.275Z,29.80
2019-01-23T10:15:25.267Z,29.10
2019-01-23T10:16:25.319Z,29.00
2019-01-23T10:17:25.242Z,28.40
2019-01-23T10:18:25.233Z,38.60
2019-01-23T10:19:25.221Z,37.20
2019-01-23T10:20:25.212Z,29.30
2019-01-23T10:21:25.225Z,27.40
2019-01-23T10:22:25.187Z,29.00
2019-01-23T10:23:25.177Z,26.60
2019-01-23T10:24:25.175Z,27.30
2019-01-23T10:25:25.160Z,29.70
2019-01-23T10:26:25.169Z,27.20
2019-01-23T10:27:25.138Z,26.80
2019-01-23T10:28:25.123Z,27.70
2019-01-23T10:29:25.111Z,28.40
2019-01-23T10:30:25.102Z,29.10
2019-01-23T10:31:25.115Z,27.20
2019-01-23T10:32:25.080Z,26.60
2019-01-23T10:33:25.073Z,27.60
2019-01-23T10:34:25.082Z,29.90
2019-01-23T10:35:25.049Z,25.90
2019-01-23T10:36:25.059Z,27.60
2019-01-23T10:37:25.023Z,27.00
2019-01-23T10:38:25.015Z,26.40
2019-01-23T10:39:25.025Z,27.20
2019-01-23T10:40:24.992Z,27.50
2019-01-23T10:41:25.003Z,26.60
2019-01-23T10:42:24.971Z,26.80
2019-01-23T10:43:24.961Z,28.90
2019-01-23T10:44:24.948Z,28.20
2019-01-23T10:45:24.936Z,28.30
2019-01-23T10:46:24.948Z,30.10
2019-01-23T10:47:25.691Z,26.70
2019-01-23T10:48:24.903Z,26.90
2019-01-23T10:49:24.921Z,28.30
2019-01-23T10:50:24.882Z,28.60
2019-01-23T10:51:24.893Z,31.20
2019-01-23T10:52:24.860Z,28.20
2019-01-23T10:53:24.848Z,26.30
2019-01-23T10:54:24.839Z,35.90
2019-01-23T10:55:24.829Z,33.30
2019-01-23T10:56:24.840Z,30.00
2019-01-23T10:57:24.806Z,33.40
2019-01-23T10:58:24.794Z,32.30
2019-01-23T10:59:24.785Z,30.20
2019-01-23T11:00:24.773Z,32.80
2019-01-23T11:01:24.785Z,27.80
2019-01-23T11:02:24.751Z,30.60
2019-01-23T11:03:24.746Z,31.20
2019-01-23T11:04:24.730Z,28.20
2019-01-23T11:05:24.719Z,28.40
2019-01-23T11:06:24.730Z,29.90
2019-01-23T11:07:24.697Z,38.50
2019-01-23T11:08:24.684Z,34.40
2019-01-23T11:09:24.778Z,31.90
2019-01-23T11:10:24.666Z,28.00
2019-01-23T11:11:24.675Z,26.50
2019-01-23T11:12:24.642Z,25.80
2019-01-23T11:13:24.630Z,29.70
2019-01-23T11:14:24.622Z,31.50
2019-01-23T11:15:24.609Z,26.40
2019-01-23T11:16:24.625Z,29.10
2019-01-23T11:17:24.588Z,28.30
2019-01-23T11:18:24.575Z,26.70
2019-01-23T11:19:24.566Z,26.20
2019-01-23T11:20:24.553Z,27.30
2019-01-23T11:21:24.565Z,25.90
2019-01-23T11:22:24.530Z,30.00
2019-01-23T11:23:24.519Z,27.60
2019-01-23T11:24:24.508Z,26.70
2019-01-23T11:25:24.498Z,27.40
2019-01-23T11:26:24.523Z,25.50
2019-01-23T11:27:24.477Z,26.70
2019-01-23T11:28:24.465Z,36.30
2019-01-23T11:29:24.453Z,35.40
2019-01-23T11:30:24.447Z,26.80
2019-01-23T11:31:24.457Z,26.50
2019-01-23T11:32:24.423Z,26.20
2019-01-23T11:33:24.416Z,26.70
2019-01-23T11:34:24.399Z,26.10
2019-01-23T11:35:24.390Z,26.00
2019-01-23T11:36:24.403Z,27.40
2019-01-23T11:37:24.367Z,25.60
2019-01-23T11:38:24.357Z,27.10
2019-01-23T11:39:24.345Z,26.00
2019-01-23T11:40:24.334Z,27.40
2019-01-23T11:41:24.346Z,27.20
2019-01-23T11:42:24.311Z,28.00
2019-01-23T11:43:24.300Z,42.90
2019-01-23T11:44:24.288Z,31.30
2019-01-23T11:45:24.278Z,27.00
2019-01-23T11:46:24.290Z,26.70
2019-01-23T11:47:24.257Z,27.10
2019-01-23T11:48:24.247Z,27.00
2019-01-23T11:49:24.237Z,26.70
2019-01-23T11:50:24.226Z,30.70
2019-01-23T11:51:24.266Z,30.00
2019-01-23T11:52:24.202Z,30.10
2019-01-23T11:53:24.190Z,34.90
2019-01-23T11:54:24.179Z,31.60
2019-01-23T11:55:24.170Z,36.60
2019-01-23T11:56:24.156Z,36.40
2019-01-23T11:57:24.170Z,38.00
2019-01-23T11:58:24.136Z,29.70
2019-01-23T11:59:24.139Z,26.80
2019-01-23T12:00:24.115Z,26.60
2019-01-23T12:01:27.709Z,27.70
2019-01-23T12:02:30.600Z,26.90
2019-01-23T12:03:25.079Z,37.70
2019-01-23T12:04:24.070Z,29.70
2019-01-23T12:05:24.060Z,32.90
2019-01-23T12:06:24.048Z,35.80
2019-01-23T12:07:24.059Z,35.40
2019-01-23T12:08:24.024Z,31.00
2019-01-23T12:09:24.016Z,29.80
2019-01-23T12:10:24.003Z,30.40
2019-01-23T12:11:23.992Z,29.90
2019-01-23T12:12:24.006Z,28.20
2019-01-23T12:13:23.972Z,26.50
2019-01-23T12:14:23.959Z,26.60
2019-01-23T12:15:23.949Z,26.10
2019-01-23T12:16:23.936Z,27.00
2019-01-23T12:17:23.953Z,26.20
2019-01-23T12:18:23.915Z,26.60
2019-01-23T12:19:23.904Z,26.50
2019-01-23T12:20:23.894Z,25.70
2019-01-23T12:21:23.887Z,25.50
2019-01-23T12:22:23.896Z,25.70
2019-01-23T12:23:23.860Z,25.50
2019-01-23T12:24:24.756Z,25.40
2019-01-23T12:25:23.840Z,25.70
2019-01-23T12:26:23.832Z,25.40
2019-01-23T12:27:23.843Z,24.60
2019-01-23T12:28:23.806Z,28.10
2019-01-23T12:29:23.796Z,30.90
2019-01-23T12:30:23.785Z,28.70
2019-01-23T12:31:23.774Z,27.70
2019-01-23T12:32:23.764Z,26.00
2019-01-23T12:33:23.778Z,25.70
2019-01-23T12:34:23.742Z,25.90
2019-01-23T12:35:23.738Z,25.30
2019-01-23T12:36:23.720Z,25.80
2019-01-23T12:37:23.731Z,26.50
2019-01-23T12:38:23.695Z,26.30
2019-01-23T12:39:23.684Z,25.40
2019-01-23T12:40:23.673Z,26.60
2019-01-23T12:41:23.664Z,26.20
2019-01-23T12:42:23.654Z,25.40
2019-01-23T12:43:23.664Z,26.10
2019-01-23T12:44:23.634Z,25.30
2019-01-23T12:45:23.619Z,25.30
2019-01-23T12:46:23.608Z,24.30
2019-01-23T12:47:23.599Z,25.00
2019-01-23T12:48:23.611Z,25.30
2019-01-23T12:49:23.575Z,23.90
2019-01-23T12:50:23.565Z,26.60
2019-01-23T12:51:23.553Z,26.00
2019-01-23T12:52:23.573Z,25.80